sensor_id;sensor_type;location;lat;lon;timestamp;temperature;humidity
60287;DHT22;46141;52.382;5.270;2022-12-18T00:01:30;19.20;54.60
60287;DHT22;46141;52.382;5.270;2022-12-18T00:03:57;19.20;54.60
60287;DHT22;46141;52.382;5.270;2022-12-18T00:06:26;19.20;54.60
60287;DHT22;46141;52.382;5.270;2022-12-18T00:08:52;19.10;54.60
60287;DHT22;46141;52.382;5.270;2022-12-18T00:11:21;19.10;54.70
60287;DHT22;46141;52.382;5.270;2022-12-18T00:13:47;19.10;54.60
60287;DHT22;46141;52.382;5.270;2022-12-18T00:16:16;19.10;54.60
60287;DHT22;46141;52.382;5.270;2022-12-18T00:18:43;19.00;54.70
60287;DHT22;46141;52.382;5.270;2022-12-18T00:21:11;19.10;54.70
60287;DHT22;46141;52.382;5.270;2022-12-18T00:23:39;19.10;54.60
60287;DHT22;46141;52.382;5.270;2022-12-18T00:26:10;19.00;54.80
60287;DHT22;46141;52.382;5.270;2022-12-18T00:28:36;19.00;54.80
60287;DHT22;46141;52.382;5.270;2022-12-18T00:31:05;18.90;54.70
60287;DHT22;46141;52.382;5.270;2022-12-18T00:33:31;18.90;54.70
60287;DHT22;46141;52.382;5.270;2022-12-18T00:36:09;18.90;54.70
60287;DHT22;46141;52.382;5.270;2022-12-18T00:38:35;18.90;54.70
60287;DHT22;46141;52.382;5.270;2022-12-18T00:41:01;18.90;54.70
60287;DHT22;46141;52.382;5.270;2022-12-18T00:43:27;18.90;54.60
60287;DHT22;46141;52.382;5.270;2022-12-18T00:45:53;18.90;54.60
60287;DHT22;46141;52.382;5.270;2022-12-18T00:48:19;18.80;54.60
60287;DHT22;46141;52.382;5.270;2022-12-18T00:50:46;18.80;54.70
60287;DHT22;46141;52.382;5.270;2022-12-18T00:53:12;18.80;54.60
60287;DHT22;46141;52.382;5.270;2022-12-18T00:55:42;18.80;54.60
60287;DHT22;46141;52.382;5.270;2022-12-18T00:58:10;18.80;54.70
60287;DHT22;46141;52.382;5.270;2022-12-18T01:00:36;18.80;54.60
60287;DHT22;46141;52.382;5.270;2022-12-18T01:03:01;18.70;54.70
60287;DHT22;46141;52.382;5.270;2022-12-18T01:05:28;18.70;54.80
60287;DHT22;46141;52.382;5.270;2022-12-18T01:07:56;18.70;54.80
60287;DHT22;46141;52.382;5.270;2022-12-18T01:10:23;18.60;54.70
60287;DHT22;46141;52.382;5.270;2022-12-18T01:12:49;18.60;54.80
60287;DHT22;46141;52.382;5.270;2022-12-18T01:15:16;18.50;54.70
60287;DHT22;46141;52.382;5.270;2022-12-18T01:17:42;18.50;54.70
60287;DHT22;46141;52.382;5.270;2022-12-18T01:20:10;18.50;54.80
60287;DHT22;46141;52.382;5.270;2022-12-18T01:22:36;18.50;54.70
60287;DHT22;46141;52.382;5.270;2022-12-18T01:25:02;18.50;54.80
60287;DHT22;46141;52.382;5.270;2022-12-18T01:27:30;18.40;54.70
60287;DHT22;46141;52.382;5.270;2022-12-18T01:29:56;18.40;54.70
60287;DHT22;46141;52.382;5.270;2022-12-18T01:32:22;18.40;54.70
60287;DHT22;46141;52.382;5.270;2022-12-18T01:34:48;18.40;54.70
60287;DHT22;46141;52.382;5.270;2022-12-18T01:37:15;18.40;54.70
60287;DHT22;46141;52.382;5.270;2022-12-18T01:39:40;18.30;54.70
60287;DHT22;46141;52.382;5.270;2022-12-18T01:42:12;18.20;54.60
60287;DHT22;46141;52.382;5.270;2022-12-18T01:47:36;18.20;54.50
60287;DHT22;46141;52.382;5.270;2022-12-18T01:50:36;18.20;54.50
60287;DHT22;46141;52.382;5.270;2022-12-18T01:53:16;18.20;54.50
60287;DHT22;46141;52.382;5.270;2022-12-18T01:55:50;18.20;54.50
60287;DHT22;46141;52.382;5.270;2022-12-18T01:58:17;18.20;54.60
60287;DHT22;46141;52.382;5.270;2022-12-18T02:00:44;18.10;54.50
60287;DHT22;46141;52.382;5.270;2022-12-18T02:03:10;18.10;54.60
60287;DHT22;46141;52.382;5.270;2022-12-18T02:08:40;18.00;55.20
60287;DHT22;46141;52.382;5.270;2022-12-18T02:11:32;18.00;54.50
60287;DHT22;46141;52.382;5.270;2022-12-18T02:14:20;18.00;54.50
60287;DHT22;46141;52.382;5.270;2022-12-18T02:25:13;17.90;54.50
60287;DHT22;46141;52.382;5.270;2022-12-18T02:27:46;17.90;54.40
60287;DHT22;46141;52.382;5.270;2022-12-18T02:30:16;17.90;54.40
60287;DHT22;46141;52.382;5.270;2022-12-18T02:32:50;17.90;54.50
60287;DHT22;46141;52.382;5.270;2022-12-18T02:35:23;17.90;54.30
60287;DHT22;46141;52.382;5.270;2022-12-18T02:37:51;17.90;54.30
60287;DHT22;46141;52.382;5.270;2022-12-18T02:40:19;17.80;54.30
60287;DHT22;46141;52.382;5.270;2022-12-18T02:42:46;17.80;54.30
60287;DHT22;46141;52.382;5.270;2022-12-18T02:45:12;17.80;54.40
60287;DHT22;46141;52.382;5.270;2022-12-18T02:47:43;17.70;54.40
60287;DHT22;46141;52.382;5.270;2022-12-18T02:50:33;17.70;54.40
60287;DHT22;46141;52.382;5.270;2022-12-18T02:55:55;17.60;54.30
60287;DHT22;46141;52.382;5.270;2022-12-18T03:01:09;17.60;54.40
60287;DHT22;46141;52.382;5.270;2022-12-18T03:03:57;17.60;54.40
60287;DHT22;46141;52.382;5.270;2022-12-18T03:06:32;17.50;54.40
60287;DHT22;46141;52.382;5.270;2022-12-18T03:09:06;17.50;54.40
60287;DHT22;46141;52.382;5.270;2022-12-18T03:11:37;17.50;54.30
60287;DHT22;46141;52.382;5.270;2022-12-18T03:14:29;17.50;54.30
60287;DHT22;46141;52.382;5.270;2022-12-18T03:17:01;17.50;54.20
60287;DHT22;46141;52.382;5.270;2022-12-18T03:19:32;17.50;54.20
60287;DHT22;46141;52.382;5.270;2022-12-18T03:22:02;17.50;54.10
60287;DHT22;46141;52.382;5.270;2022-12-18T03:24:31;17.50;54.10
60287;DHT22;46141;52.382;5.270;2022-12-18T03:27:03;17.40;54.20
60287;DHT22;46141;52.382;5.270;2022-12-18T03:29:32;17.40;54.20
60287;DHT22;46141;52.382;5.270;2022-12-18T03:32:06;17.40;54.20
60287;DHT22;46141;52.382;5.270;2022-12-18T03:34:38;17.40;54.20
60287;DHT22;46141;52.382;5.270;2022-12-18T03:37:06;17.40;54.10
60287;DHT22;46141;52.382;5.270;2022-12-18T03:39:33;17.40;54.10
60287;DHT22;46141;52.382;5.270;2022-12-18T03:42:05;17.40;54.10
60287;DHT22;46141;52.382;5.270;2022-12-18T03:44:45;17.30;54.00
60287;DHT22;46141;52.382;5.270;2022-12-18T03:47:25;17.30;54.00
60287;DHT22;46141;52.382;5.270;2022-12-18T03:50:14;17.30;54.00
60287;DHT22;46141;52.382;5.270;2022-12-18T03:55:34;17.30;53.90
60287;DHT22;46141;52.382;5.270;2022-12-18T03:58:03;17.30;54.00
60287;DHT22;46141;52.382;5.270;2022-12-18T04:00:32;17.30;53.90
60287;DHT22;46141;52.382;5.270;2022-12-18T04:03:01;17.30;54.00
60287;DHT22;46141;52.382;5.270;2022-12-18T04:05:30;17.20;54.00
60287;DHT22;46141;52.382;5.270;2022-12-18T04:07:58;17.20;53.80
60287;DHT22;46141;52.382;5.270;2022-12-18T04:10:24;17.30;53.90
60287;DHT22;46141;52.382;5.270;2022-12-18T04:12:50;17.20;53.90
60287;DHT22;46141;52.382;5.270;2022-12-18T04:15:15;17.20;53.90
60287;DHT22;46141;52.382;5.270;2022-12-18T04:17:48;17.20;53.70
60287;DHT22;46141;52.382;5.270;2022-12-18T04:20:14;17.20;53.80
60287;DHT22;46141;52.382;5.270;2022-12-18T04:22:41;17.20;53.80
60287;DHT22;46141;52.382;5.270;2022-12-18T04:25:07;17.20;53.90
60287;DHT22;46141;52.382;5.270;2022-12-18T04:27:32;17.20;53.80
60287;DHT22;46141;52.382;5.270;2022-12-18T04:29:58;17.20;53.80
60287;DHT22;46141;52.382;5.270;2022-12-18T04:32:24;17.20;53.70
60287;DHT22;46141;52.382;5.270;2022-12-18T04:34:50;17.20;53.70
60287;DHT22;46141;52.382;5.270;2022-12-18T04:37:15;17.20;53.60
60287;DHT22;46141;52.382;5.270;2022-12-18T04:39:42;17.20;53.50
60287;DHT22;46141;52.382;5.270;2022-12-18T04:42:08;17.20;53.50
60287;DHT22;46141;52.382;5.270;2022-12-18T04:44:34;17.20;53.50
60287;DHT22;46141;52.382;5.270;2022-12-18T04:47:00;17.20;53.50
60287;DHT22;46141;52.382;5.270;2022-12-18T04:49:26;17.20;53.40
60287;DHT22;46141;52.382;5.270;2022-12-18T04:51:51;17.20;53.50
60287;DHT22;46141;52.382;5.270;2022-12-18T04:54:19;17.20;53.40
60287;DHT22;46141;52.382;5.270;2022-12-18T04:56:45;17.20;53.40
60287;DHT22;46141;52.382;5.270;2022-12-18T04:59:11;17.20;53.30
60287;DHT22;46141;52.382;5.270;2022-12-18T05:01:37;17.20;53.40
60287;DHT22;46141;52.382;5.270;2022-12-18T05:04:03;17.20;53.40
60287;DHT22;46141;52.382;5.270;2022-12-18T05:06:29;17.20;53.20
60287;DHT22;46141;52.382;5.270;2022-12-18T05:08:55;17.20;53.20
60287;DHT22;46141;52.382;5.270;2022-12-18T05:11:20;17.20;53.20
60287;DHT22;46141;52.382;5.270;2022-12-18T05:13:46;17.20;53.30
60287;DHT22;46141;52.382;5.270;2022-12-18T05:16:13;17.20;53.30
60287;DHT22;46141;52.382;5.270;2022-12-18T05:18:40;17.20;53.20
60287;DHT22;46141;52.382;5.270;2022-12-18T05:21:06;17.20;53.30
60287;DHT22;46141;52.382;5.270;2022-12-18T05:23:32;17.20;53.20
60287;DHT22;46141;52.382;5.270;2022-12-18T05:26:01;17.20;53.20
60287;DHT22;46141;52.382;5.270;2022-12-18T05:28:29;17.20;53.10
60287;DHT22;46141;52.382;5.270;2022-12-18T05:30:57;17.20;53.00
60287;DHT22;46141;52.382;5.270;2022-12-18T05:33:25;17.20;53.00
60287;DHT22;46141;52.382;5.270;2022-12-18T05:35:53;17.20;53.00
60287;DHT22;46141;52.382;5.270;2022-12-18T05:38:20;17.20;53.10
60287;DHT22;46141;52.382;5.270;2022-12-18T05:40:50;17.20;53.10
60287;DHT22;46141;52.382;5.270;2022-12-18T05:43:17;17.20;53.00
60287;DHT22;46141;52.382;5.270;2022-12-18T05:45:43;17.20;53.00
60287;DHT22;46141;52.382;5.270;2022-12-18T05:48:09;17.20;53.00
60287;DHT22;46141;52.382;5.270;2022-12-18T05:50:39;17.20;52.90
60287;DHT22;46141;52.382;5.270;2022-12-18T05:53:06;17.10;53.00
60287;DHT22;46141;52.382;5.270;2022-12-18T05:55:36;17.20;53.00
60287;DHT22;46141;52.382;5.270;2022-12-18T05:58:03;17.10;53.00
60287;DHT22;46141;52.382;5.270;2022-12-18T06:00:31;17.10;53.00
60287;DHT22;46141;52.382;5.270;2022-12-18T06:02:58;17.10;52.90
60287;DHT22;46141;52.382;5.270;2022-12-18T06:05:24;17.10;53.00
60287;DHT22;46141;52.382;5.270;2022-12-18T06:07:50;17.20;53.00
60287;DHT22;46141;52.382;5.270;2022-12-18T06:10:16;17.10;52.90
60287;DHT22;46141;52.382;5.270;2022-12-18T06:12:42;17.10;52.90
60287;DHT22;46141;52.382;5.270;2022-12-18T06:15:08;17.20;52.90
60287;DHT22;46141;52.382;5.270;2022-12-18T06:17:34;17.20;52.90
60287;DHT22;46141;52.382;5.270;2022-12-18T06:20:00;17.10;52.80
60287;DHT22;46141;52.382;5.270;2022-12-18T06:22:27;17.10;52.80
60287;DHT22;46141;52.382;5.270;2022-12-18T06:24:53;17.20;52.80
60287;DHT22;46141;52.382;5.270;2022-12-18T06:27:19;17.10;52.80
60287;DHT22;46141;52.382;5.270;2022-12-18T06:29:44;17.10;52.80
60287;DHT22;46141;52.382;5.270;2022-12-18T06:32:11;17.10;53.30
60287;DHT22;46141;52.382;5.270;2022-12-18T06:34:37;17.20;52.80
60287;DHT22;46141;52.382;5.270;2022-12-18T06:37:03;17.20;52.70
60287;DHT22;46141;52.382;5.270;2022-12-18T06:39:29;17.20;52.70
60287;DHT22;46141;52.382;5.270;2022-12-18T06:41:55;17.10;52.60
60287;DHT22;46141;52.382;5.270;2022-12-18T06:44:21;17.20;52.60
60287;DHT22;46141;52.382;5.270;2022-12-18T06:46:46;17.20;52.60
60287;DHT22;46141;52.382;5.270;2022-12-18T06:49:12;17.20;52.60
60287;DHT22;46141;52.382;5.270;2022-12-18T06:51:38;17.20;52.50
60287;DHT22;46141;52.382;5.270;2022-12-18T06:54:04;17.20;52.50
60287;DHT22;46141;52.382;5.270;2022-12-18T06:56:30;17.20;52.50
60287;DHT22;46141;52.382;5.270;2022-12-18T06:58:56;17.20;52.50
60287;DHT22;46141;52.382;5.270;2022-12-18T07:01:22;17.20;52.50
60287;DHT22;46141;52.382;5.270;2022-12-18T07:03:53;17.20;52.50
60287;DHT22;46141;52.382;5.270;2022-12-18T07:06:22;17.20;52.50
60287;DHT22;46141;52.382;5.270;2022-12-18T07:08:49;17.20;52.40
60287;DHT22;46141;52.382;5.270;2022-12-18T07:11:16;17.20;52.40
60287;DHT22;46141;52.382;5.270;2022-12-18T07:13:42;17.20;52.40
60287;DHT22;46141;52.382;5.270;2022-12-18T07:18:36;17.20;52.40
60287;DHT22;46141;52.382;5.270;2022-12-18T07:21:04;17.20;52.40
60287;DHT22;46141;52.382;5.270;2022-12-18T07:23:32;17.20;52.20
60287;DHT22;46141;52.382;5.270;2022-12-18T07:26:07;17.20;52.20
60287;DHT22;46141;52.382;5.270;2022-12-18T07:28:35;17.20;52.20
60287;DHT22;46141;52.382;5.270;2022-12-18T07:31:09;17.20;52.20
60287;DHT22;46141;52.382;5.270;2022-12-18T07:33:36;17.20;52.20
60287;DHT22;46141;52.382;5.270;2022-12-18T07:36:04;17.10;52.20
60287;DHT22;46141;52.382;5.270;2022-12-18T07:38:32;17.20;52.20
60287;DHT22;46141;52.382;5.270;2022-12-18T07:41:08;17.20;52.30
60287;DHT22;46141;52.382;5.270;2022-12-18T07:43:35;17.10;52.20
60287;DHT22;46141;52.382;5.270;2022-12-18T07:46:01;17.20;52.20
60287;DHT22;46141;52.382;5.270;2022-12-18T07:48:28;17.20;52.40
60287;DHT22;46141;52.382;5.270;2022-12-18T07:50:55;17.20;52.10
60287;DHT22;46141;52.382;5.270;2022-12-18T07:53:23;17.20;52.10
60287;DHT22;46141;52.382;5.270;2022-12-18T07:55:48;17.20;52.10
60287;DHT22;46141;52.382;5.270;2022-12-18T07:58:14;17.20;52.10
60287;DHT22;46141;52.382;5.270;2022-12-18T08:00:40;17.10;52.00
60287;DHT22;46141;52.382;5.270;2022-12-18T08:03:06;17.10;52.00
60287;DHT22;46141;52.382;5.270;2022-12-18T08:05:31;17.10;51.90
60287;DHT22;46141;52.382;5.270;2022-12-18T08:07:58;17.10;51.90
60287;DHT22;46141;52.382;5.270;2022-12-18T08:10:23;17.00;51.80
60287;DHT22;46141;52.382;5.270;2022-12-18T08:12:50;17.00;52.00
60287;DHT22;46141;52.382;5.270;2022-12-18T08:15:17;17.10;52.10
60287;DHT22;46141;52.382;5.270;2022-12-18T08:17:42;17.00;52.50
60287;DHT22;46141;52.382;5.270;2022-12-18T08:20:09;17.00;52.60
60287;DHT22;46141;52.382;5.270;2022-12-18T08:22:35;17.00;52.80
60287;DHT22;46141;52.382;5.270;2022-12-18T08:25:01;16.90;52.80
60287;DHT22;46141;52.382;5.270;2022-12-18T08:27:27;16.90;52.90
60287;DHT22;46141;52.382;5.270;2022-12-18T08:29:53;17.00;52.90
60287;DHT22;46141;52.382;5.270;2022-12-18T08:32:18;17.00;52.90
60287;DHT22;46141;52.382;5.270;2022-12-18T08:34:44;17.10;53.10
60287;DHT22;46141;52.382;5.270;2022-12-18T08:37:09;17.10;53.10
60287;DHT22;46141;52.382;5.270;2022-12-18T08:39:35;17.10;53.20
60287;DHT22;46141;52.382;5.270;2022-12-18T08:42:01;17.10;53.60
60287;DHT22;46141;52.382;5.270;2022-12-18T08:44:45;17.20;53.90
60287;DHT22;46141;52.382;5.270;2022-12-18T08:47:11;17.10;54.00
60287;DHT22;46141;52.382;5.270;2022-12-18T08:49:36;17.10;54.20
60287;DHT22;46141;52.382;5.270;2022-12-18T08:52:02;17.20;54.20
60287;DHT22;46141;52.382;5.270;2022-12-18T08:54:29;17.20;54.10
60287;DHT22;46141;52.382;5.270;2022-12-18T08:56:55;17.30;54.10
60287;DHT22;46141;52.382;5.270;2022-12-18T08:59:20;17.30;54.10
60287;DHT22;46141;52.382;5.270;2022-12-18T09:01:47;17.40;54.10
60287;DHT22;46141;52.382;5.270;2022-12-18T09:04:13;17.40;54.10
60287;DHT22;46141;52.382;5.270;2022-12-18T09:06:42;17.50;54.20
60287;DHT22;46141;52.382;5.270;2022-12-18T09:09:09;17.50;54.10
60287;DHT22;46141;52.382;5.270;2022-12-18T09:11:35;17.60;54.20
60287;DHT22;46141;52.382;5.270;2022-12-18T09:14:02;17.60;54.20
60287;DHT22;46141;52.382;5.270;2022-12-18T09:16:29;17.70;54.20
60287;DHT22;46141;52.382;5.270;2022-12-18T09:18:57;17.70;54.20
60287;DHT22;46141;52.382;5.270;2022-12-18T09:21:28;17.70;54.20
60287;DHT22;46141;52.382;5.270;2022-12-18T09:23:55;17.80;54.20
60287;DHT22;46141;52.382;5.270;2022-12-18T09:26:22;17.80;54.30
60287;DHT22;46141;52.382;5.270;2022-12-18T09:28:48;17.80;54.70
60287;DHT22;46141;52.382;5.270;2022-12-18T09:31:14;17.90;54.80
60287;DHT22;46141;52.382;5.270;2022-12-18T09:33:40;18.00;54.70
60287;DHT22;46141;52.382;5.270;2022-12-18T09:36:09;18.00;54.60
60287;DHT22;46141;52.382;5.270;2022-12-18T09:38:36;18.00;54.60
60287;DHT22;46141;52.382;5.270;2022-12-18T09:43:56;18.10;54.70
60287;DHT22;46141;52.382;5.270;2022-12-18T09:46:38;18.10;55.00
60287;DHT22;46141;52.382;5.270;2022-12-18T09:49:14;18.20;55.30
60287;DHT22;46141;52.382;5.270;2022-12-18T09:52:26;18.20;55.40
60287;DHT22;46141;52.382;5.270;2022-12-18T09:54:52;18.30;55.20
60287;DHT22;46141;52.382;5.270;2022-12-18T09:57:23;18.30;55.70
60287;DHT22;46141;52.382;5.270;2022-12-18T09:59:56;18.40;56.00
60287;DHT22;46141;52.382;5.270;2022-12-18T10:02:26;18.40;55.80
60287;DHT22;46141;52.382;5.270;2022-12-18T10:05:05;18.40;55.10
60287;DHT22;46141;52.382;5.270;2022-12-18T10:10:50;18.50;54.90
60287;DHT22;46141;52.382;5.270;2022-12-18T10:16:06;18.60;55.10
60287;DHT22;46141;52.382;5.270;2022-12-18T10:21:36;18.60;54.90
60287;DHT22;46141;52.382;5.270;2022-12-18T10:24:08;18.60;55.20
60287;DHT22;46141;52.382;5.270;2022-12-18T10:26:38;18.70;55.00
60287;DHT22;46141;52.382;5.270;2022-12-18T10:29:14;18.70;55.00
60287;DHT22;46141;52.382;5.270;2022-12-18T10:31:40;18.70;55.00
60287;DHT22;46141;52.382;5.270;2022-12-18T10:34:13;18.80;55.20
60287;DHT22;46141;52.382;5.270;2022-12-18T10:36:39;18.70;54.80
60287;DHT22;46141;52.382;5.270;2022-12-18T10:41:41;18.80;54.90
60287;DHT22;46141;52.382;5.270;2022-12-18T10:44:19;18.90;54.80
60287;DHT22;46141;52.382;5.270;2022-12-18T10:46:51;18.90;54.90
60287;DHT22;46141;52.382;5.270;2022-12-18T10:49:23;18.90;55.10
60287;DHT22;46141;52.382;5.270;2022-12-18T10:51:51;19.00;54.70
60287;DHT22;46141;52.382;5.270;2022-12-18T10:54:22;19.00;55.00
60287;DHT22;46141;52.382;5.270;2022-12-18T10:56:48;19.00;54.80
60287;DHT22;46141;52.382;5.270;2022-12-18T10:59:16;19.00;54.70
60287;DHT22;46141;52.382;5.270;2022-12-18T11:01:54;19.10;55.00
60287;DHT22;46141;52.382;5.270;2022-12-18T11:04:29;19.10;54.60
60287;DHT22;46141;52.382;5.270;2022-12-18T11:07:00;19.20;54.60
60287;DHT22;46141;52.382;5.270;2022-12-18T11:09:35;19.20;54.90
60287;DHT22;46141;52.382;5.270;2022-12-18T11:12:22;19.20;54.60
60287;DHT22;46141;52.382;5.270;2022-12-18T11:14:52;19.30;54.60
60287;DHT22;46141;52.382;5.270;2022-12-18T11:19:55;19.30;54.40
60287;DHT22;46141;52.382;5.270;2022-12-18T11:22:31;19.30;54.70
60287;DHT22;46141;52.382;5.270;2022-12-18T11:27:56;19.40;54.70
60287;DHT22;46141;52.382;5.270;2022-12-18T11:30:35;19.40;54.70
60287;DHT22;46141;52.382;5.270;2022-12-18T11:33:22;19.40;54.80
60287;DHT22;46141;52.382;5.270;2022-12-18T11:36:00;19.50;54.40
60287;DHT22;46141;52.382;5.270;2022-12-18T11:38:33;19.50;54.60
60287;DHT22;46141;52.382;5.270;2022-12-18T11:43:44;19.60;54.40
60287;DHT22;46141;52.382;5.270;2022-12-18T11:46:27;19.60;54.90
60287;DHT22;46141;52.382;5.270;2022-12-18T11:49:17;19.70;54.60
60287;DHT22;46141;52.382;5.270;2022-12-18T11:52:04;19.70;54.50
60287;DHT22;46141;52.382;5.270;2022-12-18T11:54:35;19.70;54.60
60287;DHT22;46141;52.382;5.270;2022-12-18T11:57:25;19.70;53.80
60287;DHT22;46141;52.382;5.270;2022-12-18T12:08:07;19.90;54.50
60287;DHT22;46141;52.382;5.270;2022-12-18T12:21:41;20.00;55.00
60287;DHT22;46141;52.382;5.270;2022-12-18T12:29:33;20.10;55.10
60287;DHT22;46141;52.382;5.270;2022-12-18T12:32:20;20.10;55.20
60287;DHT22;46141;52.382;5.270;2022-12-18T12:40:34;20.20;55.10
60287;DHT22;46141;52.382;5.270;2022-12-18T12:43:19;20.30;55.30
60287;DHT22;46141;52.382;5.270;2022-12-18T12:45:49;20.30;55.30
60287;DHT22;46141;52.382;5.270;2022-12-18T12:53:42;20.40;55.10
60287;DHT22;46141;52.382;5.270;2022-12-18T12:56:11;20.40;54.70
60287;DHT22;46141;52.382;5.270;2022-12-18T12:58:44;20.50;54.80
60287;DHT22;46141;52.382;5.270;2022-12-18T13:01:17;20.50;55.30
60287;DHT22;46141;52.382;5.270;2022-12-18T13:06:58;20.50;55.20
60287;DHT22;46141;52.382;5.270;2022-12-18T13:09:30;20.50;55.10
60287;DHT22;46141;52.382;5.270;2022-12-18T13:12:02;20.50;55.40
60287;DHT22;46141;52.382;5.270;2022-12-18T13:14:47;20.60;55.50
60287;DHT22;46141;52.382;5.270;2022-12-18T13:19:49;20.60;54.90
60287;DHT22;46141;52.382;5.270;2022-12-18T13:22:48;20.60;55.10
60287;DHT22;46141;52.382;5.270;2022-12-18T13:25:36;20.60;55.30
60287;DHT22;46141;52.382;5.270;2022-12-18T13:28:08;20.70;55.20
60287;DHT22;46141;52.382;5.270;2022-12-18T13:41:01;20.70;55.10
60287;DHT22;46141;52.382;5.270;2022-12-18T13:43:29;20.80;55.30
60287;DHT22;46141;52.382;5.270;2022-12-18T13:46:18;20.70;55.20
60287;DHT22;46141;52.382;5.270;2022-12-18T13:49:01;20.80;55.60
60287;DHT22;46141;52.382;5.270;2022-12-18T13:51:31;20.80;55.50
60287;DHT22;46141;52.382;5.270;2022-12-18T13:56:49;20.80;54.50
60287;DHT22;46141;52.382;5.270;2022-12-18T13:59:16;20.80;54.60
60287;DHT22;46141;52.382;5.270;2022-12-18T14:01:54;20.80;55.20
60287;DHT22;46141;52.382;5.270;2022-12-18T14:07:15;20.80;55.20
60287;DHT22;46141;52.382;5.270;2022-12-18T14:09:48;20.80;55.50
60287;DHT22;46141;52.382;5.270;2022-12-18T14:12:21;20.80;55.40
60287;DHT22;46141;52.382;5.270;2022-12-18T14:15:41;20.90;55.50
60287;DHT22;46141;52.382;5.270;2022-12-18T14:18:24;20.90;55.50
60287;DHT22;46141;52.382;5.270;2022-12-18T14:20:52;20.90;55.50
60287;DHT22;46141;52.382;5.270;2022-12-18T14:23:33;20.90;55.20
60287;DHT22;46141;52.382;5.270;2022-12-18T14:26:01;20.90;55.50
60287;DHT22;46141;52.382;5.270;2022-12-18T14:28:27;20.90;55.50
60287;DHT22;46141;52.382;5.270;2022-12-18T14:30:54;20.90;55.30
60287;DHT22;46141;52.382;5.270;2022-12-18T14:33:21;20.90;55.40
60287;DHT22;46141;52.382;5.270;2022-12-18T14:35:59;20.90;55.20
60287;DHT22;46141;52.382;5.270;2022-12-18T14:38:30;20.90;55.40
60287;DHT22;46141;52.382;5.270;2022-12-18T14:41:14;20.90;55.10
60287;DHT22;46141;52.382;5.270;2022-12-18T14:43:42;20.90;55.10
60287;DHT22;46141;52.382;5.270;2022-12-18T14:46:32;20.90;55.00
60287;DHT22;46141;52.382;5.270;2022-12-18T14:49:14;21.00;55.00
60287;DHT22;46141;52.382;5.270;2022-12-18T14:52:06;21.00;54.90
60287;DHT22;46141;52.382;5.270;2022-12-18T14:54:37;21.00;54.50
60287;DHT22;46141;52.382;5.270;2022-12-18T14:57:21;21.00;54.60
60287;DHT22;46141;52.382;5.270;2022-12-18T14:59:50;21.00;54.50
60287;DHT22;46141;52.382;5.270;2022-12-18T15:02:26;21.00;54.70
60287;DHT22;46141;52.382;5.270;2022-12-18T15:05:25;21.00;54.80
60287;DHT22;46141;52.382;5.270;2022-12-18T15:07:51;21.00;55.50
60287;DHT22;46141;52.382;5.270;2022-12-18T15:10:22;20.90;55.30
60287;DHT22;46141;52.382;5.270;2022-12-18T15:12:49;20.90;55.00
60287;DHT22;46141;52.382;5.270;2022-12-18T15:20:53;20.90;54.10
60287;DHT22;46141;52.382;5.270;2022-12-18T15:23:35;20.90;54.50
60287;DHT22;46141;52.382;5.270;2022-12-18T15:28:55;20.90;54.50
60287;DHT22;46141;52.382;5.270;2022-12-18T15:31:28;20.90;54.90
60287;DHT22;46141;52.382;5.270;2022-12-18T15:36:23;20.90;54.10
60287;DHT22;46141;52.382;5.270;2022-12-18T15:38:53;20.90;54.60
60287;DHT22;46141;52.382;5.270;2022-12-18T15:41:22;21.00;54.20
60287;DHT22;46141;52.382;5.270;2022-12-18T15:43:50;21.00;54.70
60287;DHT22;46141;52.382;5.270;2022-12-18T15:46:19;21.00;55.10
60287;DHT22;46141;52.382;5.270;2022-12-18T15:48:48;21.00;55.30
60287;DHT22;46141;52.382;5.270;2022-12-18T15:51:20;21.00;55.50
60287;DHT22;46141;52.382;5.270;2022-12-18T15:53:50;21.00;55.60
60287;DHT22;46141;52.382;5.270;2022-12-18T15:56:17;21.00;55.70
60287;DHT22;46141;52.382;5.270;2022-12-18T15:59:02;21.00;55.50
60287;DHT22;46141;52.382;5.270;2022-12-18T16:01:30;21.10;55.80
60287;DHT22;46141;52.382;5.270;2022-12-18T16:03:59;21.10;55.90
60287;DHT22;46141;52.382;5.270;2022-12-18T16:06:24;21.10;56.10
60287;DHT22;46141;52.382;5.270;2022-12-18T16:08:50;21.10;56.10
60287;DHT22;46141;52.382;5.270;2022-12-18T16:11:25;21.10;56.20
60287;DHT22;46141;52.382;5.270;2022-12-18T16:14:20;21.20;56.30
60287;DHT22;46141;52.382;5.270;2022-12-18T16:16:52;21.20;56.30
60287;DHT22;46141;52.382;5.270;2022-12-18T16:19:18;21.30;56.30
60287;DHT22;46141;52.382;5.270;2022-12-18T16:21:46;21.20;57.00
60287;DHT22;46141;52.382;5.270;2022-12-18T16:24:21;21.20;56.30
60287;DHT22;46141;52.382;5.270;2022-12-18T16:26:51;21.30;56.30
60287;DHT22;46141;52.382;5.270;2022-12-18T16:29:18;21.30;56.40
60287;DHT22;46141;52.382;5.270;2022-12-18T16:31:45;21.30;56.50
60287;DHT22;46141;52.382;5.270;2022-12-18T16:36:39;21.40;56.50
60287;DHT22;46141;52.382;5.270;2022-12-18T16:39:05;21.40;56.50
60287;DHT22;46141;52.382;5.270;2022-12-18T16:41:32;21.40;56.90
60287;DHT22;46141;52.382;5.270;2022-12-18T16:43:59;21.40;56.80
60287;DHT22;46141;52.382;5.270;2022-12-18T16:46:24;21.50;56.60
60287;DHT22;46141;52.382;5.270;2022-12-18T16:48:50;21.50;56.60
60287;DHT22;46141;52.382;5.270;2022-12-18T16:51:16;21.50;56.90
60287;DHT22;46141;52.382;5.270;2022-12-18T16:53:41;21.50;56.20
60287;DHT22;46141;52.382;5.270;2022-12-18T16:56:07;21.50;54.40
60287;DHT22;46141;52.382;5.270;2022-12-18T16:58:33;21.40;52.80
60287;DHT22;46141;52.382;5.270;2022-12-18T17:00:58;21.50;53.90
60287;DHT22;46141;52.382;5.270;2022-12-18T17:03:24;21.50;55.40
60287;DHT22;46141;52.382;5.270;2022-12-18T17:05:50;21.50;55.30
60287;DHT22;46141;52.382;5.270;2022-12-18T17:08:16;21.50;55.10
60287;DHT22;46141;52.382;5.270;2022-12-18T17:10:41;21.50;55.10
60287;DHT22;46141;52.382;5.270;2022-12-18T17:13:07;21.50;54.90
60287;DHT22;46141;52.382;5.270;2022-12-18T17:15:36;21.50;55.20
60287;DHT22;46141;52.382;5.270;2022-12-18T17:18:02;21.50;55.10
60287;DHT22;46141;52.382;5.270;2022-12-18T17:20:30;21.60;55.20
60287;DHT22;46141;52.382;5.270;2022-12-18T17:22:58;21.60;55.10
60287;DHT22;46141;52.382;5.270;2022-12-18T17:25:24;21.70;55.10
60287;DHT22;46141;52.382;5.270;2022-12-18T17:27:50;21.70;55.20
60287;DHT22;46141;52.382;5.270;2022-12-18T17:30:16;21.70;55.00
60287;DHT22;46141;52.382;5.270;2022-12-18T17:32:42;21.80;54.60
60287;DHT22;46141;52.382;5.270;2022-12-18T17:35:08;22.00;54.40
60287;DHT22;46141;52.382;5.270;2022-12-18T17:37:34;22.10;54.20
60287;DHT22;46141;52.382;5.270;2022-12-18T17:39:59;22.20;54.00
60287;DHT22;46141;52.382;5.270;2022-12-18T17:42:25;22.30;53.40
60287;DHT22;46141;52.382;5.270;2022-12-18T17:44:51;22.40;53.50
60287;DHT22;46141;52.382;5.270;2022-12-18T17:47:17;22.50;53.60